Time;durP1;ratioP1;P1;durP2;ratioP2;P2;SDS_P1;SDS_P2;PMS_P1;PMS_P2;Temp;Humidity;BMP_temperature;BMP_pressure;BME280_temperature;BME280_humidity;BME280_pressure;Samples;Min_cycle;Max_cycle;Signal;HPM_P1;HPM_P2
2022/09/30 00:00:42;;;;;;;14.10;12.70;;;13.10;99.90;;;;;;6013163;29;20491;-70
2022/09/30 00:03:47;;;;;;;14.00;12.33;;;13.10;99.90;;;;;;6004831;29;20496;-69
2022/09/30 00:06:51;;;;;;;15.07;12.70;;;13.10;99.90;;;;;;6013039;29;20492;-69
2022/09/30 00:09:55;;;;;;;13.03;11.73;;;13.10;99.90;;;;;;6013431;29;20483;-69
2022/09/30 00:12:58;;;;;;;11.83;10.70;;;13.10;99.90;;;;;;6013312;29;20467;-70
2022/09/30 00:16:04;;;;;;;14.13;12.83;;;12.90;99.90;;;;;;6011999;29;20773;-71
2022/09/30 00:19:07;;;;;;;13.47;12.20;;;13.00;99.90;;;;;;6012509;29;20496;-69
2022/09/30 00:22:10;;;;;;;14.00;12.70;;;12.90;99.90;;;;;;6012348;29;20476;-69
2022/09/30 00:25:14;;;;;;;14.37;12.97;;;13.00;99.90;;;;;;6011712;29;21007;-69
2022/09/30 00:28:18;;;;;;;15.53;13.90;;;13.00;99.90;;;;;;6011324;29;20484;-70
2022/09/30 00:31:24;;;;;;;19.17;17.20;;;12.90;99.90;;;;;;6012968;29;20808;-70
2022/09/30 00:34:27;;;;;;;15.77;13.60;;;12.90;99.90;;;;;;6012624;29;20480;-70
2022/09/30 00:37:30;;;;;;;16.07;14.63;;;12.90;99.90;;;;;;6014172;29;20483;-70
2022/09/30 00:40:34;;;;;;;16.47;14.87;;;12.90;99.90;;;;;;6017096;29;20480;-70
2022/09/30 00:43:42;;;;;;;14.60;13.20;;;12.90;99.90;;;;;;6017261;29;20491;-70
2022/09/30 00:46:46;;;;;;;16.90;15.10;;;12.90;99.90;;;;;;6016911;29;21018;-70
2022/09/30 00:49:51;;;;;;;15.57;13.97;;;13.00;99.90;;;;;;6016779;29;20499;-70
2022/09/30 00:53:00;;;;;;;16.57;14.43;;;13.00;99.90;;;;;;6017076;29;20488;-70
2022/09/30 00:56:07;;;;;;;16.63;15.00;;;13.00;99.90;;;;;;6017581;29;20483;-70
2022/09/30 00:59:14;;;;;;;17.10;15.27;;;13.00;99.90;;;;;;6017211;29;20830;-70
2022/09/30 01:02:19;;;;;;;15.83;13.50;;;13.00;99.90;;;;;;6017175;29;20484;-70
2022/09/30 01:05:25;;;;;;;15.43;13.93;;;13.00;99.90;;;;;;6012013;29;20488;-71
2022/09/30 01:08:30;;;;;;;15.10;13.37;;;13.10;99.90;;;;;;6016049;29;20484;-70
2022/09/30 01:11:33;;;;;;;17.10;15.17;;;13.10;99.90;;;;;;6016375;29;20480;-70
2022/09/30 01:14:37;;;;;;;15.93;13.87;;;13.20;99.90;;;;;;6016638;29;20480;-69
2022/09/30 01:17:52;;;;;;;14.50;13.10;;;13.20;99.90;;;;;;6016268;29;20835;-71
2022/09/30 01:21:43;;;;;;;15.47;13.87;;;13.20;99.90;;;;;;6016479;29;20989;-71
2022/09/30 01:25:23;;;;;;;14.40;12.90;;;13.20;99.90;;;;;;5947283;29;20476;-70
2022/09/30 01:28:55;;;;;;;15.80;13.47;;;13.30;99.90;;;;;;5975348;29;20495;-70
2022/09/30 01:32:06;;;;;;;15.43;13.93;;;13.20;99.90;;;;;;6016377;29;20495;-70
2022/09/30 01:35:22;;;;;;;14.37;12.87;;;13.30;99.90;;;;;;6016502;29;20485;-69
2022/09/30 01:38:29;;;;;;;14.33;12.87;;;13.30;99.90;;;;;;6015852;29;20496;-69
2022/09/30 01:41:44;;;;;;;14.10;12.50;;;13.30;99.90;;;;;;6016018;29;20541;-70
2022/09/30 01:44:57;;;;;;;16.73;13.17;;;13.30;99.90;;;;;;6015942;29;20488;-70
2022/09/30 01:48:07;;;;;;;12.80;11.40;;;13.30;99.90;;;;;;6015718;29;20977;-70
2022/09/30 01:51:17;;;;;;;12.97;10.37;;;13.30;99.90;;;;;;6015184;29;20484;-71
2022/09/30 01:54:26;;;;;;;12.77;10.17;;;13.30;99.90;;;;;;6015848;29;20485;-70
2022/09/30 01:57:35;;;;;;;10.20;9.20;;;13.30;99.90;;;;;;6015386;29;20488;-70
2022/09/30 02:00:43;;;;;;;12.10;10.13;;;13.30;99.90;;;;;;6015487;29;20484;-70
2022/09/30 02:03:50;;;;;;;11.60;10.37;;;13.30;99.90;;;;;;6015631;29;20512;-71
2022/09/30 02:06:59;;;;;;;12.30;11.10;;;13.30;99.90;;;;;;6015385;29;20529;-70
2022/09/30 02:10:10;;;;;;;10.80;9.70;;;13.40;99.90;;;;;;6016286;29;20464;-71
2022/09/30 02:13:19;;;;;;;9.17;8.37;;;13.30;99.90;;;;;;6015342;29;20589;-70
2022/09/30 02:16:28;;;;;;;9.03;8.20;;;13.30;99.90;;;;;;6015798;29;20483;-70
2022/09/30 02:19:37;;;;;;;10.27;9.37;;;13.30;99.90;;;;;;6015529;29;20492;-71
2022/09/30 02:22:45;;;;;;;10.40;9.47;;;13.30;99.90;;;;;;6015621;29;20537;-72
2022/09/30 02:25:51;;;;;;;8.57;7.67;;;13.30;99.90;;;;;;6015716;29;20499;-70
2022/09/30 02:29:03;;;;;;;9.53;8.73;;;13.30;99.90;;;;;;6015267;29;20532;-70
2022/09/30 02:32:12;;;;;;;9.27;8.37;;;13.20;99.90;;;;;;6015252;29;20845;-71
2022/09/30 02:35:21;;;;;;;9.13;8.33;;;13.10;99.90;;;;;;6015130;29;20480;-71
2022/09/30 02:38:30;;;;;;;9.60;7.80;;;13.10;99.90;;;;;;6014906;29;20484;-71
2022/09/30 02:41:38;;;;;;;9.60;8.60;;;13.10;99.90;;;;;;6014598;29;20488;-71
2022/09/30 02:44:41;;;;;;;8.90;8.10;;;13.10;99.90;;;;;;6015252;29;20476;-71
2022/09/30 02:47:57;;;;;;;8.33;7.57;;;13.10;99.90;;;;;;6014455;29;20961;-70
2022/09/30 02:51:10;;;;;;;8.43;7.63;;;13.10;99.90;;;;;;6014640;29;20978;-71
2022/09/30 02:54:23;;;;;;;9.40;7.50;;;13.20;99.90;;;;;;6014349;29;20581;-72
2022/09/30 02:57:36;;;;;;;8.00;7.30;;;13.20;99.90;;;;;;6014630;29;20487;-72
2022/09/30 03:00:39;;;;;;;7.23;6.53;;;13.20;99.90;;;;;;6013965;29;20492;-71
2022/09/30 03:03:46;;;;;;;8.33;7.47;;;13.20;99.90;;;;;;6014021;29;20541;-71
2022/09/30 03:06:51;;;;;;;8.53;7.83;;;13.20;99.90;;;;;;6013977;29;20500;-71
2022/09/30 03:09:57;;;;;;;8.73;7.87;;;13.10;99.90;;;;;;6014233;29;20484;-71
2022/09/30 03:13:16;;;;;;;8.93;8.03;;;13.10;99.90;;;;;;6014118;29;20476;-73
2022/09/30 03:16:27;;;;;;;8.50;7.70;;;13.10;99.90;;;;;;6014107;29;20480;-71
2022/09/30 03:19:46;;;;;;;10.70;8.53;;;13.10;99.90;;;;;;6013688;29;20500;-70
2022/09/30 03:23:14;;;;;;;10.00;9.10;;;13.00;99.90;;;;;;6014266;29;20484;-71
2022/09/30 03:26:30;;;;;;;9.77;8.77;;;13.00;99.90;;;;;;6014186;29;20491;-70
2022/09/30 03:29:41;;;;;;;9.63;8.73;;;13.00;99.90;;;;;;6013464;29;20856;-71
2022/09/30 03:32:59;;;;;;;9.23;8.37;;;13.00;99.90;;;;;;6013747;29;20503;-71
2022/09/30 03:36:06;;;;;;;11.40;9.40;;;13.00;99.90;;;;;;6014004;29;20565;-71
2022/09/30 03:39:22;;;;;;;9.40;8.40;;;13.00;99.90;;;;;;6013507;29;20485;-71
2022/09/30 03:42:29;;;;;;;8.33;7.53;;;12.90;99.90;;;;;;6013264;29;20488;-71
2022/09/30 03:45:39;;;;;;;9.90;8.10;;;12.90;99.90;;;;;;6013507;29;20488;-71
2022/09/30 03:48:44;;;;;;;9.83;8.43;;;12.90;99.90;;;;;;6012999;29;20485;-71
2022/09/30 03:51:48;;;;;;;8.10;7.33;;;12.90;99.90;;;;;;6013039;29;20873;-72
2022/09/30 03:54:57;;;;;;;9.30;8.43;;;12.90;99.90;;;;;;6013308;29;20821;-71
2022/09/30 03:58:01;;;;;;;9.80;8.83;;;12.90;99.90;;;;;;6014695;29;20471;-72
2022/09/30 04:01:04;;;;;;;9.37;8.47;;;13.00;99.90;;;;;;6013843;29;20516;-70
2022/09/30 04:04:07;;;;;;;10.63;7.87;;;13.00;99.90;;;;;;6013260;29;20931;-71
2022/09/30 04:07:11;;;;;;;9.53;7.87;;;12.90;99.90;;;;;;6012999;29;21105;-71
2022/09/30 04:10:16;;;;;;;10.03;8.80;;;13.00;99.90;;;;;;6013547;29;20524;-71
2022/09/30 04:13:19;;;;;;;9.13;8.23;;;12.90;99.90;;;;;;6015448;29;20504;-71
2022/09/30 04:16:22;;;;;;;9.37;8.47;;;12.90;99.90;;;;;;6009652;29;20491;-72
2022/09/30 04:19:25;;;;;;;8.63;7.63;;;12.80;99.90;;;;;;6017915;29;20514;-71
2022/09/30 04:22:28;;;;;;;12.00;8.33;;;12.80;99.90;;;;;;6017562;29;20494;-71
2022/09/30 04:25:32;;;;;;;8.97;8.17;;;12.80;99.90;;;;;;6017506;29;20817;-72
2022/09/30 04:28:36;;;;;;;8.80;7.90;;;12.80;99.90;;;;;;6017314;29;20554;-71
2022/09/30 04:31:39;;;;;;;8.43;7.63;;;12.70;99.90;;;;;;6017854;29;20521;-71
2022/09/30 04:34:42;;;;;;;7.80;7.00;;;12.70;99.90;;;;;;6017449;29;20491;-72
2022/09/30 04:37:46;;;;;;;7.97;7.17;;;12.70;99.90;;;;;;6017812;29;20495;-72
2022/09/30 04:40:50;;;;;;;8.83;8.03;;;12.80;99.90;;;;;;6017181;29;20488;-72
2022/09/30 04:43:54;;;;;;;11.47;8.00;;;12.80;99.90;;;;;;6017524;29;20499;-71
2022/09/30 04:46:59;;;;;;;8.47;7.57;;;12.80;99.90;;;;;;6016691;29;20499;-70
2022/09/30 04:50:02;;;;;;;7.90;6.83;;;12.90;99.90;;;;;;6017265;29;20978;-71
2022/09/30 04:53:05;;;;;;;8.03;7.23;;;12.80;99.90;;;;;;6017855;29;20491;-69
2022/09/30 04:56:10;;;;;;;7.93;6.93;;;12.90;99.90;;;;;;6021350;29;20488;-70
2022/09/30 04:59:14;;;;;;;10.30;7.50;;;12.90;99.90;;;;;;6018826;29;20488;-70
2022/09/30 05:02:17;;;;;;;8.63;7.80;;;13.00;99.90;;;;;;6016364;29;20483;-73
2022/09/30 05:05:20;;;;;;;7.37;6.67;;;13.00;99.90;;;;;;6015879;29;20491;-73
2022/09/30 05:08:23;;;;;;;8.33;7.47;;;13.00;99.90;;;;;;6015311;29;20480;-73
2022/09/30 05:11:28;;;;;;;7.77;7.07;;;13.00;99.90;;;;;;6016041;29;20488;-73
2022/09/30 05:14:32;;;;;;;8.20;7.37;;;13.00;99.90;;;;;;6015708;29;20476;-72
2022/09/30 05:17:35;;;;;;;8.43;6.80;;;13.00;99.90;;;;;;6014369;29;20482;-72
2022/09/30 05:20:39;;;;;;;9.80;8.90;;;13.00;99.90;;;;;;6016487;29;20488;-71
2022/09/30 05:23:42;;;;;;;10.20;9.10;;;13.00;99.90;;;;;;6015271;29;20823;-70
2022/09/30 05:26:46;;;;;;;10.27;9.27;;;12.90;99.90;;;;;;6015236;29;20520;-70
2022/09/30 05:29:49;;;;;;;10.30;9.27;;;12.90;99.90;;;;;;6016619;29;20488;-70
2022/09/30 05:32:53;;;;;;;10.00;9.10;;;12.90;99.90;;;;;;6016257;29;20497;-71
2022/09/30 05:36:00;;;;;;;10.63;9.53;;;12.90;99.90;;;;;;6016286;29;20981;-71
2022/09/30 05:39:04;;;;;;;9.10;8.20;;;13.00;99.90;;;;;;6016000;29;20484;-70
2022/09/30 05:42:09;;;;;;;10.40;9.30;;;13.00;99.90;;;;;;6015961;29;20488;-70
2022/09/30 05:45:16;;;;;;;10.10;9.10;;;13.10;99.90;;;;;;6016052;29;20480;-70
2022/09/30 05:48:19;;;;;;;9.47;8.53;;;13.20;99.90;;;;;;6015985;29;20834;-71
2022/09/30 05:51:22;;;;;;;9.80;8.80;;;13.20;99.90;;;;;;6016806;29;20984;-71
2022/09/30 05:54:26;;;;;;;13.57;10.00;;;13.30;99.90;;;;;;6015742;29;20521;-70
2022/09/30 05:57:30;;;;;;;10.63;9.53;;;13.40;99.90;;;;;;6015802;29;20491;-70
2022/09/30 06:00:34;;;;;;;12.03;10.93;;;13.50;99.90;;;;;;6015761;29;20859;-69
2022/09/30 06:03:38;;;;;;;17.43;10.57;;;13.50;99.90;;;;;;6015720;29;20476;-71
2022/09/30 06:06:41;;;;;;;14.07;11.60;;;13.40;99.90;;;;;;6015374;29;20507;-70
2022/09/30 06:09:44;;;;;;;11.90;10.73;;;13.50;99.90;;;;;;6015233;29;20484;-69
2022/09/30 06:12:50;;;;;;;11.83;10.60;;;13.30;99.90;;;;;;6015756;29;20804;-70
2022/09/30 06:15:57;;;;;;;12.53;11.37;;;13.40;99.90;;;;;;6015246;29;20997;-71
2022/09/30 06:19:00;;;;;;;11.80;10.23;;;13.60;99.90;;;;;;6015240;29;20464;-71
2022/09/30 06:22:03;;;;;;;10.97;9.93;;;13.70;99.90;;;;;;6011447;29;20452;-70
2022/09/30 06:25:07;;;;;;;11.67;10.47;;;13.70;99.90;;;;;;6014985;29;20472;-70
2022/09/30 06:28:12;;;;;;;11.50;10.40;;;13.80;99.90;;;;;;6015210;29;20495;-71
2022/09/30 06:31:16;;;;;;;10.67;9.57;;;13.80;99.90;;;;;;6014808;29;20461;-70
2022/09/30 06:34:19;;;;;;;11.23;10.07;;;13.90;99.90;;;;;;6015228;29;20540;-71
2022/09/30 06:37:22;;;;;;;12.07;10.90;;;13.90;99.90;;;;;;6015325;29;20496;-71
2022/09/30 06:40:26;;;;;;;10.80;9.77;;;13.80;99.90;;;;;;6016606;29;20480;-71
2022/09/30 06:43:30;;;;;;;9.97;8.97;;;13.80;99.90;;;;;;6017013;29;20543;-72
2022/09/30 06:46:47;;;;;;;10.90;9.80;;;13.80;99.90;;;;;;6017582;29;20477;-72
2022/09/30 06:49:57;;;;;;;10.40;9.30;;;13.70;99.90;;;;;;6017383;29;20935;-71
2022/09/30 06:53:02;;;;;;;11.63;9.87;;;13.70;99.90;;;;;;6019345;29;20490;-71
2022/09/30 06:56:05;;;;;;;10.87;9.10;;;13.70;99.90;;;;;;6018036;29;20554;-74
2022/09/30 06:59:11;;;;;;;10.63;9.27;;;13.70;99.90;;;;;;6015153;29;20846;-74
2022/09/30 07:02:14;;;;;;;10.50;9.20;;;13.70;99.90;;;;;;6015350;29;20502;-73
2022/09/30 07:05:18;;;;;;;10.17;9.27;;;13.80;99.90;;;;;;6014306;29;20580;-71
2022/09/30 07:08:21;;;;;;;12.03;8.17;;;13.70;99.90;;;;;;6013965;29;20502;-71
2022/09/30 07:11:25;;;;;;;12.00;10.80;;;13.70;99.90;;;;;;6014479;29;20480;-72
2022/09/30 07:14:30;;;;;;;11.37;10.17;;;13.70;99.90;;;;;;6014287;29;20484;-71
2022/09/30 07:17:33;;;;;;;13.57;9.40;;;13.80;99.90;;;;;;6014099;29;20958;-71
2022/09/30 07:20:37;;;;;;;11.80;10.70;;;13.80;99.90;;;;;;6014299;29;20492;-71
2022/09/30 07:23:44;;;;;;;10.10;8.97;;;13.80;99.90;;;;;;6013816;29;20491;-71
2022/09/30 07:26:47;;;;;;;11.63;9.60;;;13.90;99.90;;;;;;6013798;29;20492;-71
2022/09/30 07:29:52;;;;;;;11.23;9.70;;;13.90;99.90;;;;;;6013213;29;20484;-71
2022/09/30 07:33:15;;;;;;;10.80;9.80;;;14.00;99.90;;;;;;6013561;29;20921;-71
2022/09/30 07:36:22;;;;;;;10.10;9.07;;;14.00;99.90;;;;;;6013508;29;20492;-71
2022/09/30 07:39:31;;;;;;;30.63;11.30;;;14.10;99.90;;;;;;6013212;29;20490;-71
2022/09/30 07:42:38;;;;;;;10.83;9.83;;;14.20;99.90;;;;;;6013369;29;20540;-71
2022/09/30 07:45:43;;;;;;;13.03;10.43;;;14.40;99.90;;;;;;6013216;29;20490;-71
2022/09/30 07:48:50;;;;;;;10.03;9.13;;;14.70;99.90;;;;;;6011852;29;20918;-71
2022/09/30 07:51:55;;;;;;;10.07;8.67;;;14.80;99.90;;;;;;6012192;29;20496;-72
2022/09/30 07:54:58;;;;;;;9.00;8.10;;;14.80;99.90;;;;;;6009578;29;20516;-70
2022/09/30 07:58:01;;;;;;;9.67;8.70;;;14.90;99.90;;;;;;6014492;29;20480;-70
2022/09/30 08:01:07;;;;;;;8.80;8.07;;;14.90;99.90;;;;;;6014842;29;20750;-70
2022/09/30 08:04:12;;;;;;;9.00;8.10;;;15.10;99.90;;;;;;6020621;29;20539;-70
2022/09/30 08:07:18;;;;;;;9.03;8.17;;;15.40;99.90;;;;;;6022137;29;20468;-69
2022/09/30 08:10:21;;;;;;;7.63;7.03;;;16.50;99.90;;;;;;6018763;29;20478;-71
2022/09/30 08:13:25;;;;;;;7.03;6.43;;;19.90;99.90;;;;;;6020686;29;20781;-71
2022/09/30 08:16:29;;;;;;;7.87;7.17;;;24.20;99.70;;;;;;6024566;29;20261;-70
2022/09/30 08:19:33;;;;;;;7.90;7.20;;;25.40;92.60;;;;;;6013956;29;20245;-69
2022/09/30 08:22:36;;;;;;;7.77;6.93;;;26.50;87.20;;;;;;6013674;29;20235;-69
2022/09/30 08:25:39;;;;;;;6.43;5.93;;;26.70;82.00;;;;;;6013516;29;20754;-70
2022/09/30 08:28:45;;;;;;;7.03;6.53;;;27.70;76.20;;;;;;6012611;29;20541;-70
2022/09/30 08:31:50;;;;;;;6.77;6.27;;;26.90;74.30;;;;;;6004770;29;20246;-71
2022/09/30 08:34:53;;;;;;;8.63;7.27;;;25.50;77.80;;;;;;6013089;29;20246;-72
2022/09/30 08:37:56;;;;;;;7.63;7.07;;;24.50;81.40;;;;;;6013499;29;20250;-73
2022/09/30 08:41:11;;;;;;;6.93;6.43;;;24.30;83.40;;;;;;6013246;29;20303;-74
2022/09/30 08:44:28;;;;;;;6.97;6.27;;;25.50;80.50;;;;;;6012567;29;20243;-73
2022/09/30 08:47:42;;;;;;;6.60;6.10;;;24.90;77.50;;;;;;6011219;29;20251;-73
2022/09/30 08:50:59;;;;;;;8.83;6.10;;;25.20;82.10;;;;;;6011201;29;20243;-72
2022/09/30 08:54:06;;;;;;;6.03;5.63;;;28.50;73.90;;;;;;6011691;29;20239;-72
2022/09/30 08:57:12;;;;;;;6.63;6.13;;;28.30;65.80;;;;;;6012033;29;20234;-73
2022/09/30 09:00:17;;;;;;;5.73;5.33;;;28.20;65.50;;;;;;6015081;29;20306;-73
2022/09/30 09:03:25;;;;;;;6.00;5.50;;;27.90;65.80;;;;;;6016832;29;20239;-73
2022/09/30 09:06:34;;;;;;;4.60;4.20;;;29.30;61.60;;;;;;6016521;29;20238;-73
2022/09/30 09:09:54;;;;;;;7.00;5.53;;;31.10;58.40;;;;;;6016387;29;20736;-73
2022/09/30 09:13:08;;;;;;;5.55;5.15;;;31.70;53.70;;;;;;6016853;29;20295;-73
2022/09/30 09:16:21;;;;;;;4.47;4.18;;;32.00;53.00;;;;;;6016301;29;20231;-72
2022/09/30 09:19:36;;;;;;;5.43;4.67;;;31.70;52.30;;;;;;6016642;29;20592;-72
2022/09/30 09:22:39;;;;;;;4.67;4.27;;;30.60;53.10;;;;;;6016991;29;20239;-73
2022/09/30 09:25:45;;;;;;;4.97;4.57;;;29.70;55.10;;;;;;6016442;29;20249;-71
2022/09/30 09:29:03;;;;;;;4.70;4.30;;;29.20;55.70;;;;;;6016034;29;20249;-73
2022/09/30 09:32:13;;;;;;;4.33;3.93;;;28.40;56.80;;;;;;6016754;29;20249;-73
2022/09/30 09:35:29;;;;;;;3.83;3.43;;;28.30;58.90;;;;;;6012503;29;20241;-73
2022/09/30 09:38:40;;;;;;;3.70;3.40;;;30.30;55.50;;;;;;6016453;29;20242;-72
2022/09/30 09:41:48;;;;;;;4.40;4.00;;;29.90;54.40;;;;;;6017846;29;20245;-72
2022/09/30 09:44:55;;;;;;;5.80;5.10;;;28.60;56.30;;;;;;6019963;29;20251;-72
2022/09/30 09:47:59;;;;;;;4.10;3.80;;;27.60;58.30;;;;;;6017588;29;20345;-73
2022/09/30 09:51:12;;;;;;;6.40;4.00;;;27.00;60.30;;;;;;6018503;29;20302;-72
2022/09/30 09:54:18;;;;;;;4.10;3.70;;;26.30;62.20;;;;;;6018689;29;20239;-73
2022/09/30 09:57:30;;;;;;;3.73;3.37;;;26.40;65.00;;;;;;6016117;29;20621;-73
2022/09/30 10:04:09;;;;;;;3.23;2.97;;;28.20;59.30;;;;;;5995370;29;20299;-73
2022/09/30 10:07:15;;;;;;;4.93;3.23;;;30.00;56.40;;;;;;6015274;29;20241;-73
2022/09/30 10:10:19;;;;;;;3.10;2.85;;;32.60;51.90;;;;;;6013132;29;20837;-71
2022/09/30 10:13:29;;;;;;;2.60;2.30;;;32.50;49.00;;;;;;6011730;29;20538;-70
2022/09/30 10:16:34;;;;;;;3.10;2.43;;;31.10;50.10;;;;;;6015467;29;20230;-71
2022/09/30 10:19:38;;;;;;;2.50;2.30;;;30.10;52.20;;;;;;6015223;29;20310;-69
2022/09/30 10:22:43;;;;;;;2.33;2.10;;;29.70;53.20;;;;;;6015384;29;20628;-68
2022/09/30 10:25:56;;;;;;;2.63;2.17;;;28.60;54.70;;;;;;6016390;29;20580;-69
2022/09/30 10:29:02;;;;;;;3.00;2.80;;;29.30;54.00;;;;;;6015161;29;20239;-71
2022/09/30 10:32:09;;;;;;;3.43;3.13;;;29.80;53.70;;;;;;6012792;29;20222;-71
2022/09/30 10:35:20;;;;;;;3.60;3.30;;;31.60;51.30;;;;;;6014789;29;20238;-69
2022/09/30 10:38:28;;;;;;;2.40;2.20;;;34.00;48.00;;;;;;6013385;29;20239;-70
2022/09/30 10:41:34;;;;;;;2.60;2.40;;;35.80;44.20;;;;;;6008983;29;20397;-72
2022/09/30 10:44:45;;;;;;;3.08;2.50;;;36.00;43.30;;;;;;6015450;29;20237;-73
2022/09/30 10:47:51;;;;;;;5.03;4.57;;;37.90;40.50;;;;;;6014654;29;20458;-68
2022/09/30 10:50:56;;;;;;;3.28;2.97;;;40.50;37.10;;;;;;6015333;29;20241;-70
2022/09/30 10:54:02;;;;;;;2.72;2.30;;;42.30;32.10;;;;;;6015517;29;20552;-72
2022/09/30 10:57:05;;;;;;;2.17;2.05;;;39.80;32.50;;;;;;6015172;29;20235;-72
2022/09/30 11:00:16;;;;;;;3.30;2.28;;;39.70;32.80;;;;;;6014626;29;20246;-74
2022/09/30 11:03:24;;;;;;;2.25;2.15;;;37.90;34.10;;;;;;6014869;29;20249;-75
2022/09/30 11:06:31;;;;;;;2.10;1.90;;;35.50;37.10;;;;;;6016985;29;20249;-74
2022/09/30 11:09:42;;;;;;;2.80;2.08;;;34.10;39.20;;;;;;6015511;29;20253;-73
2022/09/30 11:12:51;;;;;;;2.42;2.22;;;32.70;41.30;;;;;;6019427;29;20718;-72
2022/09/30 11:16:03;;;;;;;2.30;2.20;;;30.00;45.50;;;;;;6015678;29;20246;-72
2022/09/30 11:19:16;;;;;;;2.60;2.40;;;27.80;49.40;;;;;;6008090;29;20264;-71
2022/09/30 11:22:35;;;;;;;2.00;1.80;;;26.30;53.10;;;;;;5991663;29;20296;-70
2022/09/30 11:25:46;;;;;;;2.50;2.30;;;25.20;55.60;;;;;;5992536;29;20254;-70
2022/09/30 11:29:08;;;;;;;3.33;2.77;;;24.00;59.20;;;;;;5992622;29;20251;-71
2022/09/30 11:32:23;;;;;;;3.40;2.20;;;22.50;63.80;;;;;;5991687;29;20232;-70
2022/09/30 11:35:40;;;;;;;2.20;2.10;;;21.80;68.30;;;;;;5991718;29;20251;-68
2022/09/30 11:39:07;;;;;;;2.37;2.20;;;20.90;72.00;;;;;;5990862;29;20720;-70
2022/09/30 11:42:19;;;;;;;2.47;2.27;;;20.90;74.10;;;;;;5991191;29;20533;-70
2022/09/30 11:45:32;;;;;;;2.93;2.73;;;20.60;75.70;;;;;;5985469;29;20243;-70
2022/09/30 11:48:50;;;;;;;2.60;2.40;;;20.30;78.80;;;;;;6013144;29;20684;-70
2022/09/30 11:52:03;;;;;;;2.60;2.40;;;20.90;80.80;;;;;;6013593;29;20243;-72
2022/09/30 11:55:22;;;;;;;2.60;2.40;;;21.70;77.00;;;;;;6013286;29;20223;-71
2022/09/30 11:58:34;;;;;;;2.33;2.20;;;21.90;76.90;;;;;;6013169;29;20254;-70
2022/09/30 12:01:48;;;;;;;2.40;2.20;;;23.00;74.60;;;;;;6013004;29;20338;-70
2022/09/30 12:04:56;;;;;;;3.90;2.80;;;23.70;71.00;;;;;;6014180;29;20240;-68
2022/09/30 12:08:05;;;;;;;1.90;1.80;;;23.00;71.10;;;;;;6013537;29;20259;-72
2022/09/30 12:11:12;;;;;;;1.93;1.83;;;23.40;72.00;;;;;;6013309;29;20247;-69
2022/09/30 12:14:23;;;;;;;2.07;1.93;;;26.20;63.00;;;;;;6013285;29;20242;-71
2022/09/30 12:17:30;;;;;;;1.80;1.70;;;28.90;56.00;;;;;;6013022;29;20238;-71
2022/09/30 12:20:38;;;;;;;1.80;1.70;;;28.70;54.10;;;;;;5995021;29;20299;-71
2022/09/30 12:23:46;;;;;;;3.10;2.17;;;27.70;55.60;;;;;;5990651;29;20826;-71
2022/09/30 12:26:49;;;;;;;2.50;2.27;;;27.80;57.50;;;;;;5990288;29;20242;-71
2022/09/30 12:30:19;;;;;;;1.40;1.23;;;30.10;52.20;;;;;;6019242;24;20690;-71
2022/09/30 12:33:47;;;;;;;1.70;1.60;;;33.40;46.80;;;;;;6013495;29;20240;-72
2022/09/30 12:37:12;;;;;;;1.53;1.43;;;32.00;45.50;;;;;;6017814;29;20253;-72
2022/09/30 12:40:35;;;;;;;2.30;2.10;;;30.80;47.10;;;;;;5995119;29;20246;-70
2022/09/30 12:44:06;;;;;;;1.43;1.33;;;30.00;48.10;;;;;;5984992;29;20231;-72
2022/09/30 12:47:31;;;;;;;2.00;1.50;;;28.50;50.10;;;;;;5986042;29;20230;-71
2022/09/30 12:50:40;;;;;;;1.73;1.63;;;26.80;53.60;;;;;;5993904;29;20695;-71
2022/09/30 12:53:43;;;;;;;1.33;1.23;;;26.00;54.60;;;;;;5993566;29;20564;-70
2022/09/30 12:56:53;;;;;;;1.80;1.13;;;24.40;57.40;;;;;;5994052;29;20240;-71
2022/09/30 13:00:01;;;;;;;1.63;1.53;;;22.80;61.60;;;;;;5994138;29;20232;-70
2022/09/30 13:03:14;;;;;;;1.27;1.17;;;22.20;64.80;;;;;;5994402;29;20236;-73
2022/09/30 13:06:18;;;;;;;2.43;1.40;;;21.50;68.60;;;;;;5994591;29;20236;-72
2022/09/30 13:09:33;;;;;;;2.27;1.50;;;21.00;71.10;;;;;;5994263;29;20708;-70
2022/09/30 13:12:42;;;;;;;2.50;1.50;;;20.60;72.80;;;;;;5993210;29;20248;-69
2022/09/30 13:15:46;;;;;;;5.53;5.03;;;20.10;75.80;;;;;;5971693;29;20248;-70
2022/09/30 13:19:02;;;;;;;2.03;1.87;;;20.10;77.90;;;;;;5976031;29;20232;-68
2022/09/30 13:22:51;;;;;;;3.03;2.73;;;20.20;78.80;;;;;;5993487;29;20217;-69
2022/09/30 13:25:54;;;;;;;4.77;4.37;;;19.90;80.50;;;;;;5993446;29;20336;-70
2022/09/30 13:29:34;;;;;;;3.80;3.40;;;19.50;82.10;;;;;;5992959;29;20259;-68
2022/09/30 13:32:38;;;;;;;3.13;2.93;;;19.30;84.40;;;;;;5992942;29;20255;-70
2022/09/30 13:35:51;;;;;;;2.77;2.57;;;19.60;84.30;;;;;;5993190;29;20300;-70
2022/09/30 13:39:19;;;;;;;2.33;2.13;;;19.70;84.20;;;;;;5992875;29;20251;-70
2022/09/30 13:42:28;;;;;;;3.03;1.53;;;19.60;84.70;;;;;;5993048;29;20240;-70
2022/09/30 13:45:38;;;;;;;2.97;2.77;;;19.30;87.10;;;;;;5992383;29;20569;-70
2022/09/30 13:48:48;;;;;;;1.77;1.67;;;19.30;87.90;;;;;;5993159;29;20702;-70
2022/09/30 13:51:55;;;;;;;1.90;1.80;;;19.30;89.10;;;;;;5984731;29;20324;-69
2022/09/30 13:55:04;;;;;;;5.00;2.57;;;19.20;90.20;;;;;;5992842;29;20306;-69
2022/09/30 13:58:23;;;;;;;2.53;2.43;;;19.10;91.20;;;;;;5992909;29;20734;-71
2022/09/30 14:01:43;;;;;;;2.50;2.30;;;18.80;92.10;;;;;;5993243;29;20554;-70
2022/09/30 14:05:05;;;;;;;3.40;3.13;;;18.60;93.00;;;;;;5992860;29;20824;-70
2022/09/30 14:08:39;;;;;;;3.10;2.80;;;18.40;93.30;;;;;;5992946;29;20504;-70
2022/09/30 14:12:08;;;;;;;3.63;3.20;;;18.20;94.30;;;;;;5992444;29;20489;-70
2022/09/30 14:15:42;;;;;;;3.87;2.90;;;17.90;95.30;;;;;;5992487;29;20481;-69
2022/09/30 14:19:06;;;;;;;8.50;7.67;;;17.70;96.60;;;;;;5992461;29;20541;-69
2022/09/30 14:22:11;;;;;;;4.67;4.17;;;17.70;97.30;;;;;;5992471;29;20457;-71
2022/09/30 14:25:18;;;;;;;2.27;2.13;;;17.60;97.70;;;;;;5992634;29;20457;-69
2022/09/30 14:28:33;;;;;;;2.40;2.20;;;17.60;98.40;;;;;;5992312;29;20473;-70
2022/09/30 14:31:44;;;;;;;4.90;3.00;;;17.50;99.30;;;;;;5992386;29;20485;-68
2022/09/30 14:34:49;;;;;;;3.20;2.90;;;17.40;99.90;;;;;;5992171;29;20496;-70
2022/09/30 14:37:54;;;;;;;3.70;2.73;;;17.30;99.90;;;;;;5992226;29;20489;-69
2022/09/30 14:41:08;;;;;;;2.67;2.47;;;17.20;99.90;;;;;;5992010;29;20477;-69
2022/09/30 14:44:16;;;;;;;2.67;2.20;;;17.40;99.90;;;;;;5992038;29;20497;-69
2022/09/30 14:47:21;;;;;;;2.93;2.73;;;17.60;99.90;;;;;;5991645;29;20557;-69
2022/09/30 14:50:27;;;;;;;3.00;2.80;;;17.80;99.90;;;;;;5991622;29;20538;-69
2022/09/30 14:53:32;;;;;;;5.30;4.87;;;18.00;99.90;;;;;;5991354;29;20563;-67
2022/09/30 14:56:37;;;;;;;5.13;4.63;;;17.90;99.90;;;;;;5991367;29;20875;-68
2022/09/30 14:59:41;;;;;;;3.17;2.90;;;17.90;99.90;;;;;;5991595;29;20485;-69
2022/09/30 15:02:46;;;;;;;5.00;2.70;;;17.90;99.90;;;;;;5991931;29;20488;-69
2022/09/30 15:05:49;;;;;;;3.10;2.77;;;17.90;99.90;;;;;;5991583;29;20485;-68
2022/09/30 15:09:01;;;;;;;5.73;3.67;;;17.70;99.90;;;;;;5991425;29;20482;-68
2022/09/30 15:12:10;;;;;;;3.70;3.40;;;17.50;99.90;;;;;;5991139;29;20489;-68
2022/09/30 15:15:25;;;;;;;3.27;2.90;;;17.50;99.90;;;;;;5991586;29;20546;-68
2022/09/30 15:18:32;;;;;;;4.50;4.00;;;17.40;99.90;;;;;;5990867;29;20974;-69
2022/09/30 15:21:35;;;;;;;4.10;3.80;;;17.30;99.90;;;;;;5991211;29;20488;-69
2022/09/30 15:24:39;;;;;;;2.50;2.30;;;17.40;99.90;;;;;;5990980;29;20473;-69
2022/09/30 15:27:44;;;;;;;3.00;2.80;;;17.40;99.90;;;;;;5990885;29;20988;-69
2022/09/30 15:30:50;;;;;;;5.23;4.07;;;17.50;99.90;;;;;;5990906;29;20477;-67
2022/09/30 15:34:13;;;;;;;2.67;2.40;;;17.50;99.90;;;;;;5991449;29;20562;-68
2022/09/30 15:37:21;;;;;;;3.60;2.50;;;17.50;99.90;;;;;;5990369;29;20977;-67
2022/09/30 15:43:50;;;;;;;2.73;2.50;;;17.60;99.90;;;;;;5990453;29;20481;-69
2022/09/30 15:47:05;;;;;;;3.10;2.90;;;17.60;99.90;;;;;;5990741;29;21008;-67
2022/09/30 15:50:37;;;;;;;3.13;2.93;;;17.60;99.90;;;;;;5990898;29;20966;-67
2022/09/30 15:53:48;;;;;;;3.93;2.60;;;17.60;99.90;;;;;;5990701;29;20481;-69
2022/09/30 15:56:52;;;;;;;2.83;2.63;;;17.60;99.90;;;;;;5991042;29;20477;-68
2022/09/30 16:00:01;;;;;;;2.93;2.73;;;17.60;99.90;;;;;;5990495;29;20541;-68
2022/09/30 16:03:19;;;;;;;4.53;3.00;;;17.50;99.90;;;;;;5989397;29;20587;-68
2022/09/30 16:06:26;;;;;;;5.23;2.90;;;17.40;99.90;;;;;;5989674;29;20885;-68
2022/09/30 16:09:32;;;;;;;2.70;2.50;;;17.40;99.90;;;;;;5989963;29;20615;-68
2022/09/30 16:12:36;;;;;;;3.10;2.80;;;17.40;99.90;;;;;;5990366;29;20521;-68
2022/09/30 16:15:40;;;;;;;5.03;2.90;;;17.40;99.90;;;;;;5990369;29;20541;-68
2022/09/30 16:18:44;;;;;;;2.93;2.73;;;17.40;99.90;;;;;;5989927;29;20485;-67
2022/09/30 16:21:50;;;;;;;3.50;3.20;;;17.30;99.90;;;;;;5990086;29;20596;-68
2022/09/30 16:25:00;;;;;;;3.67;3.47;;;17.30;99.90;;;;;;5989933;29;20782;-68